El Vigia, Venezuela
Current Conditions -  °F | °C
As of 8:00 PM on Sunday 23 Nov 2014 (Local Time) from SVVG Reporting Station
Broken Clouds Broken Clouds  
Wind Chill: 84°   Ceiling: 1300
Heat Index: 98°   Visibility: 6mi
Dew Point: 81°   Wind: 3mph
Humidity: 89%   Direction: 20°NNE
Pressure: 29.71"   Gusts: NA
Location:  8.63°N, 71.65°W
Report Text: SVVG 240000Z 02003KT 9999 BKN013 29/27 Q1006
Loading
Personal Weather Stations






























Interactive Weather Map New forecast layout! Learn more

10-Day Weather Forecast

Advertisements
Track Severe Weather on mobile